Iles-de-la-Madeleine, Canada
Current Conditions -  °F | °C
As of 11:00 PM on Friday 24 Oct 2014 (Local Time) from CYGR Reporting Station
Haze Haze  
Wind Chill: 11°   Ceiling: 300
Heat Index: 11°   Visibility: 3mi
Dew Point: 10°   Wind: 14mph
Humidity: 94%   Direction: 60°ENE
Pressure: 29.46"   Gusts: 22mph
Location:  47.42°N, 61.77°W
Report Text: CYGR 250200Z 06012G19KT 3SM BR OVC003 11/10 A2946 RMK SF8 LAST OBS/NEXT 250900 UTC SLP976
Loading
Personal Weather Stations






























Interactive Weather Map
Tropical Storm Tracking
New forecast layout! Learn more

10-Day Weather Forecast

Advertisements
Track Severe Weather on mobile